Time;durP1;ratioP1;P1;durP2;ratioP2;P2;SDS_P1;SDS_P2;PMS_P1;PMS_P2;Temp;Humidity;BMP_temperature;BMP_pressure;BME280_temperature;BME280_humidity;BME280_pressure;Samples;Min_cycle;Max_cycle;Signal;HPM_P1;HPM_P2
2023/10/02 00:30:36;;;;;;;;;;;;;;;14.40;73.29;100541.72;2179883;54;1264;-81
2023/10/02 00:31:52;;;;;;;;;;;;;;;14.32;73.68;100545.19;1090016;46;1074;-81
2023/10/02 01:20:20;;;;;;;;;;;;;;;13.71;73.79;100534.25;1074220;54;2080;-84
2023/10/02 07:50:41;;;;;;;;;;;;;;;15.33;68.71;100553.66;1088326;54;1901;-81
2023/10/02 07:54:49;;;;;;;;;;;;;;;15.48;68.17;100553.84;1088392;46;919;-82
2023/10/02 07:56:02;;;;;;;;;;;;;;;;;;;;;
2023/10/02 08:13:16;;;;;;;;;;;;;;;17.06;64.79;100533.88;1088083;54;1230;-82
2023/10/02 08:14:48;;;;;;;;;;;;;;;17.24;64.64;100542.56;1088323;47;1038;-81
2023/10/02 08:54:50;;;;;;;;;;;;;;;20.75;53.30;100510.91;1088222;54;1168;-81
2023/10/02 08:56:31;;;;;;;;;;;;;;;;;;;;;
2023/10/02 09:37:55;;;;;;;;;;;;;;;24.30;44.87;100472.09;1088034;47;930;-82
2023/10/02 09:39:57;;;;;;;;;;;;;;;24.66;45.14;100475.03;1088008;46;1036;-81
2023/10/02 09:54:52;;;;;;;;;;;;;;;;;;;;;
2023/10/02 09:57:49;;;;;;;;;;;;;;;26.93;40.76;100456.06;1088475;47;1644;-82
2023/10/02 10:01:39;;;;;;;;;;;;;;;27.38;40.36;100443.47;1088665;47;979;-82
2023/10/02 10:02:49;;;;;;;;;;;;;;;27.52;39.90;100437.72;1088324;54;1274;-81
2023/10/02 10:03:49;;;;;;;;;;;;;;;27.48;39.40;100431.88;1088066;54;1068;-82
2023/10/02 10:05:23;;;;;;;;;;;;;;;27.70;39.76;100433.88;1088218;47;1764;-82
2023/10/02 10:06:28;;;;;;;;;;;;;;;27.67;39.52;100435.22;1088155;46;1227;-82
2023/10/02 10:08:18;;;;;;;;;;;;;;;27.46;39.24;100431.28;1088019;54;1240;-82
2023/10/02 10:09:25;;;;;;;;;;;;;;;27.64;39.39;100423.91;1087984;54;1164;-84
2023/10/02 10:10:45;;;;;;;;;;;;;;;27.62;38.95;100426.91;1088183;54;1046;-83
2023/10/02 10:12:17;;;;;;;;;;;;;;;27.61;39.08;100424.38;1088077;46;1512;-83
2023/10/02 10:13:26;;;;;;;;;;;;;;;27.97;38.95;100427.69;1088195;46;1374;-83
2023/10/02 10:14:35;;;;;;;;;;;;;;;27.72;38.32;100426.22;1087979;46;1558;-83
2023/10/02 10:15:37;;;;;;;;;;;;;;;28.03;38.60;100421.22;1088743;47;990;-86
2023/10/02 10:16:41;;;;;;;;;;;;;;;28.31;38.79;100420.25;1088900;46;1376;-85
2023/10/02 10:18:03;;;;;;;;;;;;;;;28.28;38.61;100429.03;1088757;54;937;-84
2023/10/02 10:19:31;;;;;;;;;;;;;;;28.40;38.22;100420.66;1088749;47;1227;-85
2023/10/02 10:20:35;;;;;;;;;;;;;;;28.41;37.76;100430.56;1088447;47;1376;-86
2023/10/02 10:21:54;;;;;;;;;;;;;;;28.55;37.69;100430.16;1088588;54;951;-86
2023/10/02 10:22:55;;;;;;;;;;;;;;;28.53;36.91;100418.63;1088261;54;1362;-85
2023/10/02 10:24:14;;;;;;;;;;;;;;;28.43;37.10;100420.16;1088473;54;968;-84
2023/10/02 10:25:32;;;;;;;;;;;;;;;28.72;37.09;100430.97;1088387;54;1258;-84
2023/10/02 10:26:39;;;;;;;;;;;;;;;28.82;36.90;100421.16;1088495;46;1853;-84
2023/10/02 10:28:05;;;;;;;;;;;;;;;29.03;36.79;100416.75;1088440;46;1609;-87
2023/10/02 10:29:20;;;;;;;;;;;;;;;29.29;36.45;100414.22;1087980;47;1330;-85
2023/10/02 10:30:47;;;;;;;;;;;;;;;29.28;35.97;100413.41;1088171;54;961;-84
2023/10/02 10:31:55;;;;;;;;;;;;;;;29.46;36.36;100409.44;1088092;54;971;-86
2023/10/02 10:33:15;;;;;;;;;;;;;;;29.48;35.68;100409.19;1087875;47;1232;-85
2023/10/02 10:34:34;;;;;;;;;;;;;;;29.85;35.54;100409.19;1087934;47;952;-86
2023/10/02 10:35:35;;;;;;;;;;;;;;;29.69;34.65;100412.94;1087262;47;980;-85
2023/10/02 10:36:36;;;;;;;;;;;;;;;29.68;34.95;100400.28;1087370;47;1075;-85
2023/10/02 10:37:40;;;;;;;;;;;;;;;29.41;35.20;100403.91;1087473;46;991;-85
2023/10/02 10:38:49;;;;;;;;;;;;;;;29.27;35.01;100400.72;1087397;54;994;-84
2023/10/02 10:39:54;;;;;;;;;;;;;;;29.17;35.98;100392.38;1087403;47;1047;-85
2023/10/02 10:40:55;;;;;;;;;;;;;;;29.41;35.78;100407.47;1087480;54;1122;-87
2023/10/02 10:42:00;;;;;;;;;;;;;;;29.76;35.03;100396.19;1087534;54;1323;-86
2023/10/02 10:43:05;;;;;;;;;;;;;;;29.82;35.10;100392.38;1087496;54;1335;-86
2023/10/02 10:44:12;;;;;;;;;;;;;;;29.98;34.26;100399.66;1087279;46;910;-85
2023/10/02 10:45:15;;;;;;;;;;;;;;;29.34;34.69;100390.38;1087427;54;964;-85
2023/10/02 10:46:21;;;;;;;;;;;;;;;29.65;34.55;100396.13;1087607;54;951;-85
2023/10/02 10:47:39;;;;;;;;;;;;;;;29.90;34.59;100391.88;1087577;54;1848;-86
2023/10/02 10:48:45;;;;;;;;;;;;;;;30.12;33.98;100388.19;1087518;46;956;-86
2023/10/02 10:49:53;;;;;;;;;;;;;;;29.58;33.77;100390.00;1087431;47;862;-85
2023/10/02 10:50:59;;;;;;;;;;;;;;;29.82;33.98;100384.13;1087533;46;958;-86
2023/10/02 10:52:02;;;;;;;;;;;;;;;29.45;33.77;100387.69;1087577;54;892;-85
2023/10/02 10:53:29;;;;;;;;;;;;;;;28.99;34.90;100388.91;1087519;47;1199;-86
2023/10/02 10:54:30;;;;;;;;;;;;;;;28.95;34.65;100388.56;1087914;54;968;-86
2023/10/02 10:55:34;;;;;;;;;;;;;;;28.77;35.09;100375.19;1086992;47;1067;-85
2023/10/02 10:56:37;;;;;;;;;;;;;;;28.49;34.80;100380.63;1087776;47;915;-87
2023/10/02 10:57:51;;;;;;;;;;;;;;;28.44;35.04;100377.81;1087838;46;967;-85
2023/10/02 10:58:58;;;;;;;;;;;;;;;27.96;36.21;100379.34;1087821;47;962;-85
2023/10/02 11:00:23;;;;;;;;;;;;;;;27.75;37.23;100387.28;1088196;47;972;-86
2023/10/02 11:01:27;;;;;;;;;;;;;;;27.74;36.75;100382.88;1088507;47;1288;-85
2023/10/02 11:02:29;;;;;;;;;;;;;;;27.49;37.00;100380.56;1088321;47;1544;-84
2023/10/02 11:03:34;;;;;;;;;;;;;;;27.08;38.25;100386.97;1088575;54;1201;-85
2023/10/02 11:04:39;;;;;;;;;;;;;;;26.90;38.52;100390.75;1088984;54;1165;-85
2023/10/02 13:29:26;;;;;;;;;;;;;;;26.15;38.16;100200.75;1086820;47;910;-79
2023/10/02 13:30:33;;;;;;;;;;;;;;;26.29;38.31;100206.75;1087204;54;1094;-81
2023/10/02 13:31:39;;;;;;;;;;;;;;;26.28;38.67;100205.91;1086070;54;983;-81
2023/10/02 13:32:59;;;;;;;;;;;;;;;26.30;38.14;100206.50;1085610;54;1363;-80
2023/10/02 13:34:15;;;;;;;;;;;;;;;26.41;37.97;100198.47;1086892;54;1158;-80
2023/10/02 13:35:34;;;;;;;;;;;;;;;26.49;37.67;100208.22;1087153;54;1216;-79
2023/10/02 13:36:39;;;;;;;;;;;;;;;26.38;37.60;100198.97;1086891;54;1239;-79
2023/10/02 13:37:43;;;;;;;;;;;;;;;26.42;38.03;100200.97;1088349;54;1186;-82
2023/10/02 13:38:46;;;;;;;;;;;;;;;26.38;37.82;100198.97;1088322;47;1032;-80
2023/10/02 13:39:47;;;;;;;;;;;;;;;26.39;37.55;100193.25;1088668;54;1007;-82
2023/10/02 13:40:56;;;;;;;;;;;;;;;26.34;37.84;100204.09;1088558;54;1175;-80
2023/10/02 13:42:00;;;;;;;;;;;;;;;26.33;37.63;100196.13;1088069;54;1185;-80
2023/10/02 13:43:16;;;;;;;;;;;;;;;26.31;37.28;100199.97;1088135;54;1585;-81
2023/10/02 13:44:17;;;;;;;;;;;;;;;26.39;37.16;100200.63;1088090;54;1175;-80
2023/10/02 13:45:24;;;;;;;;;;;;;;;26.34;37.75;100197.81;1087821;47;1174;-81
2023/10/02 13:46:25;;;;;;;;;;;;;;;26.35;38.02;100191.25;1088602;54;1062;-80
2023/10/02 13:47:40;;;;;;;;;;;;;;;26.33;38.20;100201.63;1088019;47;1857;-80
2023/10/02 13:48:41;;;;;;;;;;;;;;;26.34;37.48;100192.31;1088248;54;1095;-80
2023/10/02 13:52:45;;;;;;;;;;;;;;;26.46;37.97;100188.44;1089181;47;1353;-84
2023/10/02 13:53:51;;;;;;;;;;;;;;;26.52;38.12;100183.88;1088702;47;939;-82
2023/10/02 13:56:26;;;;;;;;;;;;;;;26.62;37.91;100184.06;1088267;46;910;-79
2023/10/02 13:58:52;;;;;;;;;;;;;;;26.48;37.76;100177.22;1086482;54;1130;-81
2023/10/02 13:59:53;;;;;;;;;;;;;;;26.48;37.62;100177.22;1084453;47;1166;-80
2023/10/02 14:01:03;;;;;;;;;;;;;;;26.47;37.77;100175.56;1084951;47;1082;-81
2023/10/02 14:02:11;;;;;;;;;;;;;;;26.55;37.75;100166.91;1086036;54;1553;-81
2023/10/02 14:03:14;;;;;;;;;;;;;;;26.59;37.82;100179.06;1086608;54;1368;-81
2023/10/02 14:04:19;;;;;;;;;;;;;;;26.51;38.18;100176.72;1085645;47;1005;-80
2023/10/02 14:05:24;;;;;;;;;;;;;;;26.47;38.00;100181.03;1086201;54;1118;-79
2023/10/02 14:06:25;;;;;;;;;;;;;;;26.53;37.80;100173.75;1086828;47;1142;-80
2023/10/02 14:07:36;;;;;;;;;;;;;;;26.50;37.91;100174.25;1087571;54;1852;-80
2023/10/02 14:08:49;;;;;;;;;;;;;;;26.53;37.95;100166.38;1086050;46;1146;-81
2023/10/02 14:09:54;;;;;;;;;;;;;;;26.55;38.10;100169.66;1085826;54;1162;-80
2023/10/02 14:10:54;;;;;;;;;;;;;;;26.60;37.59;100169.75;1085251;54;1120;-80
2023/10/02 14:11:58;;;;;;;;;;;;;;;26.57;37.99;100167.50;1085727;54;1255;-80
2023/10/02 14:13:00;;;;;;;;;;;;;;;26.56;37.60;100168.59;1085638;47;1649;-80
2023/10/02 14:14:06;;;;;;;;;;;;;;;26.59;37.61;100168.09;1085613;54;1584;-81
2023/10/02 14:15:08;;;;;;;;;;;;;;;26.61;37.97;100165.09;1085892;54;1025;-79
2023/10/02 14:16:14;;;;;;;;;;;;;;;26.57;38.02;100167.50;1085608;54;973;-80
2023/10/02 14:17:15;;;;;;;;;;;;;;;26.60;37.49;100167.03;1085936;46;1014;-81
2023/10/02 14:18:19;;;;;;;;;;;;;;;26.62;37.54;100166.75;1086221;47;1052;-81
2023/10/02 14:19:21;;;;;;;;;;;;;;;26.56;37.72;100165.03;1085973;54;1083;-80
2023/10/02 14:20:33;;;;;;;;;;;;;;;26.51;37.95;100165.78;1085794;54;1161;-80
2023/10/02 14:21:37;;;;;;;;;;;;;;;26.57;37.89;100158.47;1086046;47;1525;-82
2023/10/02 14:22:38;;;;;;;;;;;;;;;26.61;37.75;100156.88;1085535;47;1360;-80
2023/10/02 14:23:43;;;;;;;;;;;;;;;26.61;37.90;100165.94;1085704;54;1142;-82
2023/10/02 14:24:44;;;;;;;;;;;;;;;26.65;37.78;100154.47;1086468;47;1173;-82
2023/10/02 14:25:51;;;;;;;;;;;;;;;26.64;38.02;100153.66;1086713;47;988;-80
2023/10/02 14:26:51;;;;;;;;;;;;;;;26.66;37.86;100161.63;1086698;47;1579;-80
2023/10/02 14:28:03;;;;;;;;;;;;;;;26.68;37.66;100156.72;1086580;54;1896;-79
2023/10/02 14:29:06;;;;;;;;;;;;;;;26.66;37.14;100158.88;1086195;47;1018;-83
2023/10/02 14:30:12;;;;;;;;;;;;;;;26.61;37.07;100151.41;1085160;54;1198;-79
2023/10/02 14:31:20;;;;;;;;;;;;;;;26.56;37.54;100148.59;1084712;47;1062;-80
2023/10/02 14:32:23;;;;;;;;;;;;;;;26.45;37.03;100155.81;1085055;54;1233;-80
2023/10/02 14:33:24;;;;;;;;;;;;;;;26.42;37.38;100148.06;1085542;54;1358;-81
2023/10/02 14:34:40;;;;;;;;;;;;;;;26.40;37.46;100148.31;1085380;47;1174;-79
2023/10/02 14:35:40;;;;;;;;;;;;;;;26.39;37.57;100152.16;1085486;54;960;-80
2023/10/02 14:36:47;;;;;;;;;;;;;;;26.36;37.23;100141.69;1085564;46;1150;-80
2023/10/02 14:38:05;;;;;;;;;;;;;;;26.36;37.17;100146.31;1087498;54;1087;-80
2023/10/02 14:40:56;;;;;;;;;;;;;;;26.44;37.43;100143.19;1087629;46;995;-82
2023/10/02 14:42:24;;;;;;;;;;;;;;;26.39;37.13;100138.44;1088059;46;966;-82
2023/10/02 14:47:07;;;;;;;;;;;;;;;26.43;36.89;100144.25;1088300;46;1032;-80
2023/10/02 14:48:48;;;;;;;;;;;;;;;;;;;;;
2023/10/02 14:50:33;;;;;;;;;;;;;;;;;;;;;
2023/10/02 14:51:53;;;;;;;;;;;;;;;26.54;37.83;100134.28;1087843;54;788;-81
2023/10/02 14:54:28;;;;;;;;;;;;;;;26.63;37.35;100133.63;1088067;47;937;-81
2023/10/02 14:55:36;;;;;;;;;;;;;;;26.66;37.00;100131.47;1088363;54;979;-83
2023/10/02 14:56:56;;;;;;;;;;;;;;;26.68;37.50;100140.28;1088135;47;1292;-82
2023/10/02 14:58:00;;;;;;;;;;;;;;;26.71;37.13;100134.28;1088409;47;1219;-83
2023/10/02 15:02:21;;;;;;;;;;;;;;;26.49;37.68;100126.00;1088483;47;877;-82
2023/10/02 15:13:10;;;;;;;;;;;;;;;26.52;37.50;100123.59;1087642;46;1410;-80
2023/10/02 15:14:35;;;;;;;;;;;;;;;26.53;37.48;100121.66;1087549;46;991;-81
2023/10/02 15:56:33;;;;;;;;;;;;;;;26.04;38.40;100105.75;1086107;54;1877;-82
2023/10/02 15:57:39;;;;;;;;;;;;;;;25.99;38.50;100101.00;1087914;54;1114;-82
2023/10/02 15:58:42;;;;;;;;;;;;;;;25.96;39.08;100101.47;1088030;47;1079;-83
2023/10/02 15:59:48;;;;;;;;;;;;;;;25.96;38.88;100098.75;1087963;47;1036;-81
2023/10/02 16:00:54;;;;;;;;;;;;;;;25.93;38.96;100100.06;1088257;54;1078;-83
2023/10/02 16:34:47;;;;;;;;;;;;;;;25.28;41.53;100091.13;1086434;54;828;-81
2023/10/02 16:35:48;;;;;;;;;;;;;;;25.23;41.68;100086.38;1085761;54;1079;-80
2023/10/02 16:36:51;;;;;;;;;;;;;;;25.16;41.93;100088.41;1085837;54;1085;-78
2023/10/02 16:37:52;;;;;;;;;;;;;;;25.11;42.33;100090.22;1086555;54;1180;-80
2023/10/02 16:38:56;;;;;;;;;;;;;;;25.08;42.21;100083.28;1085876;47;1111;-80
2023/10/02 16:39:59;;;;;;;;;;;;;;;25.06;42.07;100086.28;1085271;54;1169;-80
2023/10/02 16:41:03;;;;;;;;;;;;;;;25.07;42.20;100085.22;1085127;47;1596;-81
2023/10/02 16:42:04;;;;;;;;;;;;;;;25.01;42.55;100088.06;1086532;47;1105;-81
2023/10/02 16:43:09;;;;;;;;;;;;;;;25.03;42.30;100089.47;1086214;54;1485;-78
2023/10/02 16:44:12;;;;;;;;;;;;;;;24.99;42.33;100085.56;1085069;54;1585;-80
2023/10/02 16:45:15;;;;;;;;;;;;;;;24.96;42.43;100086.03;1086559;47;1421;-79
2023/10/02 16:46:19;;;;;;;;;;;;;;;24.90;42.67;100085.09;1084359;47;1151;-80
2023/10/02 16:47:20;;;;;;;;;;;;;;;24.86;42.97;100086.66;1085110;54;1184;-79
2023/10/02 16:48:23;;;;;;;;;;;;;;;24.87;42.84;100087.47;1083818;54;1879;-80
2023/10/02 16:49:25;;;;;;;;;;;;;;;24.85;42.71;100084.16;1084064;54;1091;-79
2023/10/02 16:50:32;;;;;;;;;;;;;;;24.84;42.76;100093.44;1084493;47;1063;-78
2023/10/02 16:51:35;;;;;;;;;;;;;;;24.81;43.43;100086.53;1084973;54;1088;-80
2023/10/02 16:52:43;;;;;;;;;;;;;;;24.76;43.48;100092.72;1086579;54;1334;-81
2023/10/02 16:53:44;;;;;;;;;;;;;;;24.69;43.61;100089.28;1087305;54;1000;-82
2023/10/02 16:54:48;;;;;;;;;;;;;;;24.67;44.01;100094.09;1086980;54;1076;-82
2023/10/02 16:55:57;;;;;;;;;;;;;;;24.63;44.21;100092.94;1086742;47;1131;-82
2023/10/02 16:57:05;;;;;;;;;;;;;;;24.48;44.62;100104.31;1087699;54;1066;-81
2023/10/02 16:58:07;;;;;;;;;;;;;;;24.42;45.22;100099.78;1087938;54;1024;-86
2023/10/02 16:59:20;;;;;;;;;;;;;;;24.38;44.68;100101.34;1086195;54;1037;-80
2023/10/02 17:00:38;;;;;;;;;;;;;;;24.29;44.94;100100.84;1087155;54;1054;-83
2023/10/02 17:01:49;;;;;;;;;;;;;;;24.30;44.78;100100.63;1085523;54;1177;-80
2023/10/02 17:02:59;;;;;;;;;;;;;;;24.29;45.37;100098.94;1085400;54;1365;-80
2023/10/02 17:04:04;;;;;;;;;;;;;;;24.30;45.33;100094.31;1087318;47;1134;-80
2023/10/02 17:05:05;;;;;;;;;;;;;;;24.33;45.33;100093.00;1086039;47;1554;-80
2023/10/02 17:06:15;;;;;;;;;;;;;;;24.35;45.09;100099.91;1085999;54;1033;-80
2023/10/02 17:07:16;;;;;;;;;;;;;;;24.34;45.04;100097.41;1085236;47;1478;-80
2023/10/02 17:08:35;;;;;;;;;;;;;;;24.35;45.27;100097.19;1086640;54;1850;-79
2023/10/02 17:09:36;;;;;;;;;;;;;;;24.34;45.07;100091.94;1087159;54;1147;-81
2023/10/02 17:10:39;;;;;;;;;;;;;;;24.32;45.20;100096.81;1086322;47;1123;-79
2023/10/02 17:11:40;;;;;;;;;;;;;;;24.29;45.81;100095.38;1083505;47;1423;-77
2023/10/02 17:12:54;;;;;;;;;;;;;;;24.23;45.85;100094.41;1084049;54;1385;-83
2023/10/02 17:13:55;;;;;;;;;;;;;;;24.18;46.41;100097.03;1088329;54;1323;-80
2023/10/02 17:14:59;;;;;;;;;;;;;;;24.11;46.39;100091.66;1088106;54;1058;-84
2023/10/02 17:16:00;;;;;;;;;;;;;;;24.05;47.57;100091.75;1088353;46;833;-79
2023/10/02 17:17:05;;;;;;;;;;;;;;;23.97;47.39;100092.94;1087133;54;1145;-81
2023/10/02 17:18:12;;;;;;;;;;;;;;;23.97;47.27;100095.66;1088300;47;925;-85
2023/10/02 17:19:30;;;;;;;;;;;;;;;23.96;47.73;100089.34;1088714;54;985;-82
2023/10/02 17:22:24;;;;;;;;;;;;;;;23.90;47.81;100089.44;1088793;47;1120;-85
2023/10/02 17:24:15;;;;;;;;;;;;;;;23.84;48.13;100083.84;1088225;54;1414;-83
2023/10/02 17:25:28;;;;;;;;;;;;;;;23.80;48.08;100079.91;1088526;46;957;-81
2023/10/02 17:26:37;;;;;;;;;;;;;;;23.80;48.07;100079.91;1088093;46;914;-82
2023/10/02 17:27:49;;;;;;;;;;;;;;;23.80;48.08;100079.91;1086463;54;1163;-80
2023/10/02 17:28:57;;;;;;;;;;;;;;;23.80;48.09;100074.47;1086534;54;1891;-82
2023/10/02 17:30:05;;;;;;;;;;;;;;;23.80;47.97;100079.06;1086575;54;1129;-82
2023/10/02 17:31:12;;;;;;;;;;;;;;;23.77;48.31;100083.09;1086523;54;1079;-83
2023/10/02 17:32:16;;;;;;;;;;;;;;;23.73;48.31;100083.78;1088197;54;1038;-81
2023/10/02 17:33:26;;;;;;;;;;;;;;;23.73;48.45;100083.78;1087927;47;1355;-81
2023/10/02 17:34:29;;;;;;;;;;;;;;;23.71;48.71;100091.38;1087933;47;966;-82
2023/10/02 17:35:36;;;;;;;;;;;;;;;23.61;50.12;100087.28;1085163;54;1101;-79
2023/10/02 17:45:22;;;;;;;;;;;;;;;22.99;51.63;100080.03;1088572;47;909;-83
2023/10/02 17:47:05;;;;;;;;;;;;;;;22.89;51.85;100075.09;1088921;54;1099;-83
2023/10/02 18:38:29;;;;;;;;;;;;;;;21.61;55.70;100061.63;1087412;54;1100;-81
2023/10/02 18:39:30;;;;;;;;;;;;;;;21.62;55.53;100065.16;1088105;54;1079;-81
2023/10/02 18:40:46;;;;;;;;;;;;;;;21.59;55.68;100057.44;1088223;47;971;-83
2023/10/02 18:41:47;;;;;;;;;;;;;;;21.55;55.97;100062.44;1087783;54;1043;-82
2023/10/02 18:42:50;;;;;;;;;;;;;;;21.49;56.96;100066.88;1088105;54;1463;-80
2023/10/02 18:43:58;;;;;;;;;;;;;;;21.34;57.37;100064.44;1088000;54;1126;-82
2023/10/02 18:45:01;;;;;;;;;;;;;;;21.33;57.02;100068.22;1087481;54;1174;-79
2023/10/02 18:46:02;;;;;;;;;;;;;;;21.34;56.58;100064.44;1085398;46;1089;-79
2023/10/02 18:47:05;;;;;;;;;;;;;;;21.32;56.70;100060.25;1085124;47;1656;-78
2023/10/02 18:48:07;;;;;;;;;;;;;;;21.30;57.03;100068.63;1084819;54;1888;-80
2023/10/02 18:49:12;;;;;;;;;;;;;;;21.30;56.75;100068.63;1085490;47;1228;-80
2023/10/02 18:50:16;;;;;;;;;;;;;;;21.28;56.74;100065.28;1085329;47;1367;-79
2023/10/02 18:51:23;;;;;;;;;;;;;;;21.18;58.21;100073.06;1085041;54;1235;-80
2023/10/02 18:52:24;;;;;;;;;;;;;;;21.13;57.65;100068.25;1084401;54;1251;-79
2023/10/02 18:53:32;;;;;;;;;;;;;;;21.13;57.33;100065.53;1087101;47;1334;-81
2023/10/02 18:54:34;;;;;;;;;;;;;;;21.16;57.49;100061.59;1087458;46;1145;-80
2023/10/02 18:55:38;;;;;;;;;;;;;;;21.17;57.17;100068.66;1087275;54;1190;-81
2023/10/02 18:56:40;;;;;;;;;;;;;;;21.17;57.46;100061.38;1087847;54;1204;-80
2023/10/02 18:57:49;;;;;;;;;;;;;;;21.13;58.75;100056.56;1087940;47;1117;-80
2023/10/02 18:58:59;;;;;;;;;;;;;;;21.03;58.12;100068.72;1087731;54;1189;-81
2023/10/02 19:00:10;;;;;;;;;;;;;;;20.96;58.62;100064.34;1088036;47;1068;-81
2023/10/02 19:01:12;;;;;;;;;;;;;;;20.84;59.27;100066.88;1087749;54;1062;-81
2023/10/02 19:02:17;;;;;;;;;;;;;;;20.80;59.34;100071.06;1087838;54;983;-81
2023/10/02 19:03:19;;;;;;;;;;;;;;;20.77;59.28;100069.63;1087462;54;1500;-81
2023/10/02 19:04:23;;;;;;;;;;;;;;;20.70;60.19;100069.59;1087857;54;1011;-81
2023/10/02 19:05:24;;;;;;;;;;;;;;;20.64;60.38;100070.44;1087599;54;1178;-81
2023/10/02 19:06:29;;;;;;;;;;;;;;;20.64;60.21;100075.03;1087296;54;1033;-82
2023/10/02 19:07:33;;;;;;;;;;;;;;;20.59;60.09;100072.97;1087370;54;1111;-80
2023/10/02 19:08:39;;;;;;;;;;;;;;;20.60;60.09;100073.78;1087814;47;1854;-82
2023/10/02 19:09:43;;;;;;;;;;;;;;;20.61;59.20;100076.28;1087385;54;1102;-79
2023/10/02 19:10:49;;;;;;;;;;;;;;;20.63;59.46;100071.47;1087180;54;1179;-81
2023/10/02 19:11:50;;;;;;;;;;;;;;;20.66;58.87;100075.66;1088345;54;1004;-81
2023/10/02 19:12:56;;;;;;;;;;;;;;;20.63;59.24;100071.47;1088190;54;1375;-82
2023/10/02 19:13:57;;;;;;;;;;;;;;;20.61;59.52;100076.28;1087851;54;1012;-81
2023/10/02 19:15:01;;;;;;;;;;;;;;;20.61;59.43;100075.47;1088173;54;1021;-81
2023/10/02 19:16:04;;;;;;;;;;;;;;;20.58;59.66;100065.84;1087372;54;1072;-80
2023/10/02 19:17:11;;;;;;;;;;;;;;;20.57;59.42;100067.72;1087164;47;1043;-80
2023/10/02 19:18:12;;;;;;;;;;;;;;;20.55;58.92;100068.97;1087077;47;1456;-80
2023/10/02 19:19:19;;;;;;;;;;;;;;;20.50;59.03;100066.91;1087119;54;1146;-80
2023/10/02 19:20:20;;;;;;;;;;;;;;;20.47;59.47;100071.91;1087299;54;1094;-81
2023/10/02 19:21:24;;;;;;;;;;;;;;;20.42;59.52;100069.81;1086861;54;1100;-80
2023/10/02 19:22:25;;;;;;;;;;;;;;;20.39;59.71;100073.81;1086923;54;1158;-80
2023/10/02 19:23:29;;;;;;;;;;;;;;;20.34;59.75;100075.47;1086150;54;1443;-81
2023/10/02 19:24:32;;;;;;;;;;;;;;;20.30;59.80;100071.50;1086115;47;1075;-80
2023/10/02 19:25:36;;;;;;;;;;;;;;;20.26;60.24;100077.31;1086271;54;1047;-79
2023/10/02 19:26:37;;;;;;;;;;;;;;;20.24;59.97;100075.88;1086369;54;1623;-80
2023/10/02 19:27:40;;;;;;;;;;;;;;;20.23;60.48;100069.63;1086128;54;1104;-81
2023/10/02 19:28:41;;;;;;;;;;;;;;;20.20;60.28;100074.63;1086045;54;1889;-78
2023/10/02 19:29:43;;;;;;;;;;;;;;;20.17;60.19;100072.31;1086006;47;1024;-79
2023/10/02 19:30:49;;;;;;;;;;;;;;;20.16;60.73;100073.34;1086019;47;1040;-80
2023/10/02 19:31:52;;;;;;;;;;;;;;;20.16;60.50;100076.06;1085681;54;1476;-79
2023/10/02 19:32:58;;;;;;;;;;;;;;;20.16;60.49;100073.34;1086121;47;1389;-79
2023/10/02 19:33:58;;;;;;;;;;;;;;;20.10;60.72;100075.03;1085866;54;1161;-79
2023/10/02 19:34:59;;;;;;;;;;;;;;;20.02;61.02;100073.38;1085715;54;1361;-80
2023/10/02 19:36:03;;;;;;;;;;;;;;;19.90;61.46;100070.41;1085964;54;1438;-78
2023/10/02 19:37:04;;;;;;;;;;;;;;;19.80;61.63;100076.19;1085777;47;1450;-79
2023/10/02 19:38:09;;;;;;;;;;;;;;;19.77;61.95;100082.03;1085902;54;1093;-81
2023/10/02 19:39:10;;;;;;;;;;;;;;;19.77;61.56;100070.34;1084426;47;1163;-80
2023/10/02 19:40:17;;;;;;;;;;;;;;;19.69;61.97;100074.06;1085256;47;955;-79
2023/10/02 19:41:19;;;;;;;;;;;;;;;19.67;61.82;100076.16;1085613;54;1055;-79
2023/10/02 19:42:22;;;;;;;;;;;;;;;19.65;61.88;100072.81;1085773;54;1210;-80
2023/10/02 19:43:23;;;;;;;;;;;;;;;19.61;62.07;100068.84;1084939;47;1290;-79
2023/10/02 19:44:28;;;;;;;;;;;;;;;19.53;62.30;100074.44;1084878;47;1162;-79
2023/10/02 19:45:29;;;;;;;;;;;;;;;19.56;62.17;100068.59;1085158;47;1013;-79
2023/10/02 19:46:34;;;;;;;;;;;;;;;19.53;62.29;100069.84;1084935;47;1609;-78
2023/10/02 19:47:34;;;;;;;;;;;;;;;19.52;62.17;100061.94;1084849;47;1038;-78
2023/10/02 19:48:38;;;;;;;;;;;;;;;19.42;62.52;100068.56;1085355;47;1878;-78
2023/10/02 19:49:39;;;;;;;;;;;;;;;19.41;62.25;100061.47;1084794;54;1619;-78
2023/10/02 19:50:39;;;;;;;;;;;;;;;19.38;62.65;100061.88;1086722;47;1617;-80
2023/10/02 19:51:44;;;;;;;;;;;;;;;19.36;62.60;100063.97;1087116;47;1602;-80
2023/10/02 19:52:48;;;;;;;;;;;;;;;19.34;62.89;100063.31;1087180;47;1399;-79
2023/10/02 19:53:53;;;;;;;;;;;;;;;19.36;62.65;100063.97;1087292;47;1076;-80
2023/10/02 19:54:54;;;;;;;;;;;;;;;19.33;62.43;100062.47;1087135;47;1051;-80
2023/10/02 19:56:03;;;;;;;;;;;;;;;19.35;62.66;100062.28;1087086;47;1166;-81
2023/10/02 19:57:04;;;;;;;;;;;;;;;19.31;62.88;100061.00;1087164;47;1099;-81
2023/10/02 19:58:07;;;;;;;;;;;;;;;19.29;62.64;100063.09;1087100;47;1036;-80
2023/10/02 19:59:20;;;;;;;;;;;;;;;19.26;62.62;100071.63;1087737;47;1005;-81
2023/10/02 20:00:24;;;;;;;;;;;;;;;19.22;62.94;100062.22;1088181;47;1108;-80
2023/10/02 20:01:48;;;;;;;;;;;;;;;19.24;62.82;100060.16;1088342;54;874;-82
2023/10/02 20:02:59;;;;;;;;;;;;;;;19.16;62.94;100062.00;1088479;54;1300;-82
2023/10/02 20:04:00;;;;;;;;;;;;;;;19.13;62.86;100069.66;1088401;47;961;-82
2023/10/02 20:05:28;;;;;;;;;;;;;;;19.10;62.93;100061.97;1088446;47;925;-81
2023/10/02 20:06:43;;;;;;;;;;;;;;;19.05;63.30;100067.97;1088321;47;917;-81
2023/10/02 20:07:47;;;;;;;;;;;;;;;18.99;63.16;100064.19;1088497;47;976;-82
2023/10/02 20:09:05;;;;;;;;;;;;;;;18.95;63.18;100059.38;1088288;47;1846;-82
2023/10/02 20:10:10;;;;;;;;;;;;;;;18.91;63.46;100063.47;1088350;54;896;-80
2023/10/02 20:11:20;;;;;;;;;;;;;;;18.89;63.49;100068.28;1088470;54;1061;-81
2023/10/02 20:12:23;;;;;;;;;;;;;;;18.87;63.35;100068.47;1088410;54;1092;-81
2023/10/02 20:13:30;;;;;;;;;;;;;;;18.84;63.58;100067.00;1088180;47;1227;-81
2023/10/02 20:14:49;;;;;;;;;;;;;;;18.83;63.58;100065.31;1088152;54;1107;-81
2023/10/02 20:16:07;;;;;;;;;;;;;;;18.80;63.68;100065.69;1088204;54;1034;-81
2023/10/02 20:17:13;;;;;;;;;;;;;;;18.77;63.82;100071.53;1088086;54;1002;-80
2023/10/02 20:18:20;;;;;;;;;;;;;;;18.71;64.10;100072.31;1088002;47;1002;-81
2023/10/02 20:19:25;;;;;;;;;;;;;;;18.68;63.63;100068.13;1087924;54;925;-80
2023/10/02 20:20:26;;;;;;;;;;;;;;;18.63;64.25;100076.03;1087861;47;1027;-80
2023/10/02 20:21:33;;;;;;;;;;;;;;;18.60;63.99;100071.00;1087905;54;1197;-80
2023/10/02 20:22:35;;;;;;;;;;;;;;;18.55;64.77;100074.28;1087800;47;866;-81
2023/10/02 20:23:38;;;;;;;;;;;;;;;18.52;64.36;100074.66;1087781;47;1493;-81
2023/10/02 20:24:39;;;;;;;;;;;;;;;18.43;65.08;100075.03;1087860;47;1071;-79
2023/10/02 20:25:43;;;;;;;;;;;;;;;18.38;65.00;100079.16;1087896;47;898;-80
2023/10/02 20:26:47;;;;;;;;;;;;;;;18.36;65.38;100066.84;1087716;47;970;-80
2023/10/02 20:27:50;;;;;;;;;;;;;;;18.37;64.96;100065.81;1087797;54;1108;-78
2023/10/02 20:28:51;;;;;;;;;;;;;;;18.35;65.25;100067.88;1086677;47;1952;-79
2023/10/02 20:29:57;;;;;;;;;;;;;;;18.22;65.58;100069.47;1087898;47;1028;-80
2023/10/02 20:32:31;;;;;;;;;;;;;;;18.22;65.41;100060.47;1088091;47;1181;-80
2023/10/02 20:33:33;;;;;;;;;;;;;;;18.24;65.58;100072.78;1087947;54;1336;-81
2023/10/02 20:34:40;;;;;;;;;;;;;;;18.26;65.57;100064.50;1087966;54;965;-80
2023/10/02 20:35:41;;;;;;;;;;;;;;;18.30;65.31;100056.81;1087817;54;1011;-80
2023/10/02 20:36:45;;;;;;;;;;;;;;;18.32;65.37;100058.28;1087863;47;913;-80
2023/10/02 20:37:47;;;;;;;;;;;;;;;18.37;65.24;100060.41;1087824;54;969;-81
2023/10/02 20:38:50;;;;;;;;;;;;;;;18.37;65.54;100061.22;1087061;54;1096;-79
2023/10/02 20:39:52;;;;;;;;;;;;;;;18.34;65.58;100056.22;1084532;54;1482;-79
2023/10/02 20:40:57;;;;;;;;;;;;;;;18.40;65.05;100054.59;1085192;47;1084;-78
2023/10/02 20:42:01;;;;;;;;;;;;;;;18.45;64.91;100054.84;1085172;54;1139;-80
2023/10/02 20:43:04;;;;;;;;;;;;;;;18.49;64.77;100064.25;1084867;54;1410;-80
2023/10/02 20:44:07;;;;;;;;;;;;;;;18.51;65.03;100062.19;1085254;47;1320;-79